sensor_id;sensor_type;location;lat;lon;timestamp;pressure;altitude;pressure_sealevel;temperature;humidity
10482;BME280;5288;42.334;23.876;2022-07-26T00:00:29;56017.81;;;-140.56;73.40
10482;BME280;5288;42.334;23.876;2022-07-26T00:02:56;56000.03;;;-140.56;73.72
10482;BME280;5288;42.334;23.876;2022-07-26T00:05:23;56019.81;;;-140.56;73.79
10482;BME280;5288;42.334;23.876;2022-07-26T00:07:50;56017.81;;;-140.56;73.97
10482;BME280;5288;42.334;23.876;2022-07-26T00:10:37;56005.97;;;-140.56;74.10
10482;BME280;5288;42.334;23.876;2022-07-26T00:13:04;56007.94;;;-140.56;74.01
10482;BME280;5288;42.334;23.876;2022-07-26T00:15:31;55992.13;;;-140.56;73.90
10482;BME280;5288;42.334;23.876;2022-07-26T00:17:58;56007.94;;;-140.56;73.95
10482;BME280;5288;42.334;23.876;2022-07-26T00:20:25;55982.25;;;-140.56;74.02
10482;BME280;5288;42.334;23.876;2022-07-26T00:22:53;56000.03;;;-140.56;73.75
10482;BME280;5288;42.334;23.876;2022-07-26T00:25:20;56002.00;;;-140.56;74.08
10482;BME280;5288;42.334;23.876;2022-07-26T00:27:49;55990.16;;;-140.56;74.25
10482;BME280;5288;42.334;23.876;2022-07-26T00:30:16;56005.97;;;-140.56;74.28
10482;BME280;5288;42.334;23.876;2022-07-26T00:32:43;55996.09;;;-140.56;74.55
10482;BME280;5288;42.334;23.876;2022-07-26T00:35:10;56035.63;;;-140.56;74.39
10482;BME280;5288;42.334;23.876;2022-07-26T00:37:38;56045.50;;;-140.56;74.47
10482;BME280;5288;42.334;23.876;2022-07-26T00:40:06;56013.88;;;-140.56;74.72
10482;BME280;5288;42.334;23.876;2022-07-26T00:42:33;56055.38;;;-140.56;74.47
10482;BME280;5288;42.334;23.876;2022-07-26T00:45:02;56027.72;;;-140.56;74.52
10482;BME280;5288;42.334;23.876;2022-07-26T00:47:30;56015.84;;;-140.56;74.85
10482;BME280;5288;42.334;23.876;2022-07-26T00:49:57;56013.88;;;-140.56;74.96
10482;BME280;5288;42.334;23.876;2022-07-26T00:52:25;56031.66;;;-140.56;75.08
10482;BME280;5288;42.334;23.876;2022-07-26T00:54:52;56025.72;;;-140.56;75.09
10482;BME280;5288;42.334;23.876;2022-07-26T00:57:21;55996.09;;;-140.56;75.24
10482;BME280;5288;42.334;23.876;2022-07-26T00:59:49;56049.44;;;-140.56;75.45
10482;BME280;5288;42.334;23.876;2022-07-26T01:02:18;56025.72;;;-140.56;75.45
10482;BME280;5288;42.334;23.876;2022-07-26T01:04:45;56015.84;;;-140.56;75.77
10482;BME280;5288;42.334;23.876;2022-07-26T01:07:12;56004.00;;;-140.56;75.44
10482;BME280;5288;42.334;23.876;2022-07-26T01:09:40;56029.69;;;-140.56;75.53
10482;BME280;5288;42.334;23.876;2022-07-26T01:12:08;56031.66;;;-140.56;75.64
10482;BME280;5288;42.334;23.876;2022-07-26T01:14:35;56049.44;;;-140.56;75.79
10482;BME280;5288;42.334;23.876;2022-07-26T01:17:02;56049.44;;;-140.56;75.62
10482;BME280;5288;42.334;23.876;2022-07-26T01:19:31;56029.69;;;-140.56;75.36
10482;BME280;5288;42.334;23.876;2022-07-26T01:21:59;56033.63;;;-140.56;75.32
10482;BME280;5288;42.334;23.876;2022-07-26T01:24:26;56025.72;;;-140.56;75.51
10482;BME280;5288;42.334;23.876;2022-07-26T01:26:53;56049.44;;;-140.56;75.49
10482;BME280;5288;42.334;23.876;2022-07-26T01:29:21;56053.41;;;-140.56;75.66
10482;BME280;5288;42.334;23.876;2022-07-26T01:31:49;56047.47;;;-140.56;76.04
10482;BME280;5288;42.334;23.876;2022-07-26T01:34:17;56035.63;;;-140.56;76.16
10482;BME280;5288;42.334;23.876;2022-07-26T01:36:44;56029.69;;;-140.56;76.30
10482;BME280;5288;42.334;23.876;2022-07-26T01:39:12;56057.34;;;-140.56;76.28
10482;BME280;5288;42.334;23.876;2022-07-26T01:41:39;56055.38;;;-140.56;76.31
10482;BME280;5288;42.334;23.876;2022-07-26T01:44:06;56053.41;;;-140.56;76.55
10482;BME280;5288;42.334;23.876;2022-07-26T01:46:33;56029.69;;;-140.56;76.57
10482;BME280;5288;42.334;23.876;2022-07-26T01:49:01;56041.53;;;-140.56;77.11
10482;BME280;5288;42.334;23.876;2022-07-26T01:51:28;56055.38;;;-140.56;76.91
10482;BME280;5288;42.334;23.876;2022-07-26T01:53:55;56023.75;;;-140.56;76.45
10482;BME280;5288;42.334;23.876;2022-07-26T01:56:23;56041.53;;;-140.56;75.95
10482;BME280;5288;42.334;23.876;2022-07-26T02:25:31;56079.09;;;-140.56;73.61
10482;BME280;5288;42.334;23.876;2022-07-26T02:27:58;56047.47;;;-140.56;73.70
10482;BME280;5288;42.334;23.876;2022-07-26T02:30:26;56043.50;;;-140.56;73.85
10482;BME280;5288;42.334;23.876;2022-07-26T02:32:53;56077.09;;;-140.56;74.02
10482;BME280;5288;42.334;23.876;2022-07-26T02:35:20;56037.59;;;-140.56;74.20
10482;BME280;5288;42.334;23.876;2022-07-26T02:37:47;56033.63;;;-140.56;74.25
10482;BME280;5288;42.334;23.876;2022-07-26T02:40:14;56031.66;;;-140.56;74.00
10482;BME280;5288;42.334;23.876;2022-07-26T02:42:42;56051.41;;;-140.56;74.12
10482;BME280;5288;42.334;23.876;2022-07-26T02:45:10;56087.00;;;-140.56;74.58
10482;BME280;5288;42.334;23.876;2022-07-26T02:47:44;56043.50;;;-140.56;74.98
10482;BME280;5288;42.334;23.876;2022-07-26T02:50:11;56061.31;;;-140.56;75.45
10482;BME280;5288;42.334;23.876;2022-07-26T02:52:38;56085.00;;;-140.56;75.30
10482;BME280;5288;42.334;23.876;2022-07-26T02:55:06;56051.41;;;-140.56;75.85
10482;BME280;5288;42.334;23.876;2022-07-26T02:57:33;56061.31;;;-140.56;75.67
10482;BME280;5288;42.334;23.876;2022-07-26T03:00:03;56053.41;;;-140.56;75.22
10482;BME280;5288;42.334;23.876;2022-07-26T03:02:30;56075.13;;;-140.56;75.34
10482;BME280;5288;42.334;23.876;2022-07-26T03:04:57;55996.09;;;-140.56;75.19
10482;BME280;5288;42.334;23.876;2022-07-26T03:07:27;56067.22;;;-140.56;75.14
10482;BME280;5288;42.334;23.876;2022-07-26T03:09:54;56037.59;;;-140.56;75.38
10482;BME280;5288;42.334;23.876;2022-07-26T03:12:21;56049.44;;;-140.56;75.63
10482;BME280;5288;42.334;23.876;2022-07-26T03:14:48;56088.97;;;-140.56;75.89
10482;BME280;5288;42.334;23.876;2022-07-26T03:17:17;56085.00;;;-140.56;75.71
10482;BME280;5288;42.334;23.876;2022-07-26T03:19:44;56061.31;;;-140.56;76.10
10482;BME280;5288;42.334;23.876;2022-07-26T03:22:11;56061.31;;;-140.56;76.61
10482;BME280;5288;42.334;23.876;2022-07-26T03:24:38;56047.47;;;-140.56;76.74
10482;BME280;5288;42.334;23.876;2022-07-26T03:27:05;56088.97;;;-140.56;76.85
10482;BME280;5288;42.334;23.876;2022-07-26T03:29:32;56043.50;;;-140.56;76.78
10482;BME280;5288;42.334;23.876;2022-07-26T03:31:59;56088.97;;;-140.56;76.89
10482;BME280;5288;42.334;23.876;2022-07-26T03:34:27;56081.06;;;-140.56;77.12
10482;BME280;5288;42.334;23.876;2022-07-26T03:36:54;56092.91;;;-140.56;77.43
10482;BME280;5288;42.334;23.876;2022-07-26T03:39:21;56124.53;;;-140.56;77.49
10482;BME280;5288;42.334;23.876;2022-07-26T03:41:49;56069.22;;;-140.56;77.78
10482;BME280;5288;42.334;23.876;2022-07-26T03:44:16;56047.47;;;-140.56;77.90
10482;BME280;5288;42.334;23.876;2022-07-26T03:46:43;56069.22;;;-140.56;78.45
10482;BME280;5288;42.334;23.876;2022-07-26T03:49:10;56053.41;;;-140.56;78.52
10482;BME280;5288;42.334;23.876;2022-07-26T03:51:39;56055.38;;;-140.56;78.67
10482;BME280;5288;42.334;23.876;2022-07-26T03:54:06;56059.31;;;-140.56;78.83
10482;BME280;5288;42.334;23.876;2022-07-26T03:56:33;56063.28;;;-140.56;78.94
10482;BME280;5288;42.334;23.876;2022-07-26T03:59:00;56077.09;;;-140.56;79.19
10482;BME280;5288;42.334;23.876;2022-07-26T04:01:28;56085.00;;;-140.56;79.05
10482;BME280;5288;42.334;23.876;2022-07-26T04:03:55;56088.97;;;-140.56;79.17
10482;BME280;5288;42.334;23.876;2022-07-26T04:06:22;56090.94;;;-140.56;79.47
10482;BME280;5288;42.334;23.876;2022-07-26T04:08:51;56057.34;;;-140.56;79.74
10482;BME280;5288;42.334;23.876;2022-07-26T04:11:18;56108.72;;;-140.56;79.84
10482;BME280;5288;42.334;23.876;2022-07-26T04:13:45;56067.22;;;-140.56;80.21
10482;BME280;5288;42.334;23.876;2022-07-26T04:16:12;56083.03;;;-140.56;80.40
10482;BME280;5288;42.334;23.876;2022-07-26T04:18:40;56088.97;;;-140.56;80.64
10482;BME280;5288;42.334;23.876;2022-07-26T04:21:07;56090.94;;;-140.56;80.67
10482;BME280;5288;42.334;23.876;2022-07-26T04:23:34;56085.00;;;-140.56;80.23
10482;BME280;5288;42.334;23.876;2022-07-26T04:26:03;56065.25;;;-140.56;80.43
10482;BME280;5288;42.334;23.876;2022-07-26T04:28:30;56067.22;;;-140.56;80.27
10482;BME280;5288;42.334;23.876;2022-07-26T04:30:58;56088.97;;;-140.56;80.28
10482;BME280;5288;42.334;23.876;2022-07-26T04:33:25;56063.28;;;-140.56;80.02
10482;BME280;5288;42.334;23.876;2022-07-26T04:35:53;56043.50;;;-140.56;82.02
10482;BME280;5288;42.334;23.876;2022-07-26T04:38:20;56049.44;;;-140.56;82.80
10482;BME280;5288;42.334;23.876;2022-07-26T04:40:49;56049.44;;;-140.56;81.87
10482;BME280;5288;42.334;23.876;2022-07-26T04:43:17;56025.72;;;-140.56;81.86
10482;BME280;5288;42.334;23.876;2022-07-26T04:45:45;56047.47;;;-140.56;81.37
10482;BME280;5288;42.334;23.876;2022-07-26T04:48:12;56069.22;;;-140.56;80.33
10482;BME280;5288;42.334;23.876;2022-07-26T04:50:39;56027.72;;;-140.56;79.91
10482;BME280;5288;42.334;23.876;2022-07-26T04:53:07;56063.28;;;-140.56;79.58
10482;BME280;5288;42.334;23.876;2022-07-26T04:55:35;56043.50;;;-140.56;79.00
10482;BME280;5288;42.334;23.876;2022-07-26T04:58:02;56045.50;;;-140.56;79.02
10482;BME280;5288;42.334;23.876;2022-07-26T05:00:31;56037.59;;;-140.56;79.16
10482;BME280;5288;42.334;23.876;2022-07-26T05:03:00;56033.63;;;-140.56;79.25
10482;BME280;5288;42.334;23.876;2022-07-26T05:05:29;56055.38;;;-140.56;79.44
10482;BME280;5288;42.334;23.876;2022-07-26T05:07:58;56031.66;;;-140.56;79.68
10482;BME280;5288;42.334;23.876;2022-07-26T05:10:30;55996.09;;;-140.56;79.24
10482;BME280;5288;42.334;23.876;2022-07-26T05:12:57;56043.50;;;-140.56;78.68
10482;BME280;5288;42.334;23.876;2022-07-26T05:15:25;56035.63;;;-140.56;78.10
10482;BME280;5288;42.334;23.876;2022-07-26T05:17:53;56019.81;;;-140.56;78.11
10482;BME280;5288;42.334;23.876;2022-07-26T05:20:22;56029.69;;;-140.56;77.30
10482;BME280;5288;42.334;23.876;2022-07-26T05:22:50;56041.53;;;-140.56;77.43
10482;BME280;5288;42.334;23.876;2022-07-26T05:25:17;55994.13;;;-140.56;77.08
10482;BME280;5288;42.334;23.876;2022-07-26T05:27:44;56027.72;;;-140.56;76.00
10482;BME280;5288;42.334;23.876;2022-07-26T05:30:11;56017.81;;;-140.56;74.50
10482;BME280;5288;42.334;23.876;2022-07-26T05:32:38;56009.91;;;-140.56;74.06
10482;BME280;5288;42.334;23.876;2022-07-26T05:35:08;55984.22;;;-140.56;74.45
10482;BME280;5288;42.334;23.876;2022-07-26T05:37:35;56013.88;;;-140.56;73.02
10482;BME280;5288;42.334;23.876;2022-07-26T05:40:03;55982.25;;;-140.56;72.64
10482;BME280;5288;42.334;23.876;2022-07-26T05:42:31;55988.19;;;-140.56;72.71
10482;BME280;5288;42.334;23.876;2022-07-26T05:44:58;55974.34;;;-140.56;71.89
10482;BME280;5288;42.334;23.876;2022-07-26T05:47:25;55986.22;;;-140.56;69.91
10482;BME280;5288;42.334;23.876;2022-07-26T05:49:58;55996.09;;;-140.56;70.00
10482;BME280;5288;42.334;23.876;2022-07-26T05:52:31;56002.00;;;-140.56;70.00
10482;BME280;5288;42.334;23.876;2022-07-26T05:54:58;55978.31;;;-140.56;69.61
10482;BME280;5288;42.334;23.876;2022-07-26T05:57:25;56000.03;;;-140.56;68.71
10482;BME280;5288;42.334;23.876;2022-07-26T05:59:53;55984.22;;;-140.56;69.01
10482;BME280;5288;42.334;23.876;2022-07-26T06:02:20;55968.41;;;-140.56;68.55
10482;BME280;5288;42.334;23.876;2022-07-26T06:04:47;55968.41;;;-140.56;67.89
10482;BME280;5288;42.334;23.876;2022-07-26T06:07:14;55960.53;;;-140.56;67.35
10482;BME280;5288;42.334;23.876;2022-07-26T06:09:43;55946.69;;;-140.56;66.07
10482;BME280;5288;42.334;23.876;2022-07-26T06:12:10;55940.75;;;-140.56;65.75
10482;BME280;5288;42.334;23.876;2022-07-26T06:14:37;55934.81;;;-140.56;65.77
10482;BME280;5288;42.334;23.876;2022-07-26T06:17:04;55919.03;;;-140.56;65.34
10482;BME280;5288;42.334;23.876;2022-07-26T06:19:31;55917.03;;;-140.56;64.10
10482;BME280;5288;42.334;23.876;2022-07-26T06:21:58;55936.81;;;-140.56;64.11
10482;BME280;5288;42.334;23.876;2022-07-26T06:24:26;55891.34;;;-140.56;62.35
10482;BME280;5288;42.334;23.876;2022-07-26T06:26:55;55917.03;;;-140.56;62.19
10482;BME280;5288;42.334;23.876;2022-07-26T06:29:23;55893.34;;;-140.56;61.17
10482;BME280;5288;42.334;23.876;2022-07-26T06:31:51;55881.47;;;-140.56;61.39
10482;BME280;5288;42.334;23.876;2022-07-26T06:34:18;55911.13;;;-140.56;60.39
10482;BME280;5288;42.334;23.876;2022-07-26T06:36:45;55915.06;;;-140.56;59.97
10482;BME280;5288;42.334;23.876;2022-07-26T06:39:12;55895.31;;;-140.56;59.34
10482;BME280;5288;42.334;23.876;2022-07-26T06:41:39;55917.03;;;-140.56;60.64
10482;BME280;5288;42.334;23.876;2022-07-26T06:44:08;55867.63;;;-140.56;60.25
10482;BME280;5288;42.334;23.876;2022-07-26T06:46:35;55893.34;;;-140.56;59.44
10482;BME280;5288;42.334;23.876;2022-07-26T06:49:02;55873.56;;;-140.56;58.38
10482;BME280;5288;42.334;23.876;2022-07-26T06:51:30;55867.63;;;-140.56;58.55
10482;BME280;5288;42.334;23.876;2022-07-26T06:53:57;55869.63;;;-140.56;58.47
10482;BME280;5288;42.334;23.876;2022-07-26T06:56:24;55873.56;;;-140.56;58.32
10482;BME280;5288;42.334;23.876;2022-07-26T06:58:51;55883.44;;;-140.56;57.54
10482;BME280;5288;42.334;23.876;2022-07-26T07:01:21;55871.59;;;-140.56;57.62
10482;BME280;5288;42.334;23.876;2022-07-26T07:03:49;55859.75;;;-140.56;57.95
10482;BME280;5288;42.334;23.876;2022-07-26T07:06:17;55861.72;;;-140.56;56.96
10482;BME280;5288;42.334;23.876;2022-07-26T07:08:44;55875.53;;;-140.56;56.50
10482;BME280;5288;42.334;23.876;2022-07-26T07:11:13;55853.81;;;-140.56;56.35
10482;BME280;5288;42.334;23.876;2022-07-26T07:13:41;55826.16;;;-140.56;56.65
10482;BME280;5288;42.334;23.876;2022-07-26T07:16:08;55855.78;;;-140.56;56.20
10482;BME280;5288;42.334;23.876;2022-07-26T07:18:36;55824.16;;;-140.56;55.66
10482;BME280;5288;42.334;23.876;2022-07-26T07:21:03;55818.25;;;-140.56;55.57
10482;BME280;5288;42.334;23.876;2022-07-26T07:23:31;55816.25;;;-140.56;55.59
10482;BME280;5288;42.334;23.876;2022-07-26T07:25:59;55853.81;;;-140.56;54.78
10482;BME280;5288;42.334;23.876;2022-07-26T07:28:26;55804.41;;;-140.56;55.35
10482;BME280;5288;42.334;23.876;2022-07-26T07:30:54;55804.41;;;-140.56;54.56
10482;BME280;5288;42.334;23.876;2022-07-26T07:33:21;55824.16;;;-140.56;54.13
10482;BME280;5288;42.334;23.876;2022-07-26T07:36:00;55820.22;;;-140.56;54.01
10482;BME280;5288;42.334;23.876;2022-07-26T07:38:27;55804.41;;;-140.56;53.85
10482;BME280;5288;42.334;23.876;2022-07-26T07:40:54;55792.56;;;-140.56;54.04
10482;BME280;5288;42.334;23.876;2022-07-26T07:43:21;55786.63;;;-140.56;53.55
10482;BME280;5288;42.334;23.876;2022-07-26T07:45:48;55800.47;;;-140.56;53.64
10482;BME280;5288;42.334;23.876;2022-07-26T07:48:15;55802.44;;;-140.56;53.17
10482;BME280;5288;42.334;23.876;2022-07-26T07:50:42;55802.44;;;-140.56;52.92
10482;BME280;5288;42.334;23.876;2022-07-26T07:53:11;55792.56;;;-140.56;52.52
10482;BME280;5288;42.334;23.876;2022-07-26T07:55:38;55756.97;;;-140.56;53.00
10482;BME280;5288;42.334;23.876;2022-07-26T07:58:05;55780.69;;;-140.56;52.61
10482;BME280;5288;42.334;23.876;2022-07-26T08:00:32;55766.88;;;-140.56;51.77
10482;BME280;5288;42.334;23.876;2022-07-26T08:02:59;55780.69;;;-140.56;51.63
10482;BME280;5288;42.334;23.876;2022-07-26T08:05:26;55794.53;;;-140.56;51.70
10482;BME280;5288;42.334;23.876;2022-07-26T08:07:53;55768.84;;;-140.56;50.99
10482;BME280;5288;42.334;23.876;2022-07-26T08:10:22;55737.22;;;-140.56;50.38
10482;BME280;5288;42.334;23.876;2022-07-26T08:12:50;55774.75;;;-140.56;49.84
10482;BME280;5288;42.334;23.876;2022-07-26T08:15:17;55792.56;;;-140.56;50.76
10482;BME280;5288;42.334;23.876;2022-07-26T08:17:46;55776.75;;;-140.56;51.54
10482;BME280;5288;42.334;23.876;2022-07-26T08:20:13;55729.31;;;-140.56;51.56
10482;BME280;5288;42.334;23.876;2022-07-26T08:22:40;55756.97;;;-140.56;49.30
10482;BME280;5288;42.334;23.876;2022-07-26T08:25:08;55729.31;;;-140.56;50.28
10482;BME280;5288;42.334;23.876;2022-07-26T08:27:37;55751.06;;;-140.56;49.79
10482;BME280;5288;42.334;23.876;2022-07-26T08:30:05;55753.03;;;-140.56;49.11
10482;BME280;5288;42.334;23.876;2022-07-26T08:32:32;55731.28;;;-140.56;49.54
10482;BME280;5288;42.334;23.876;2022-07-26T08:34:59;55709.56;;;-140.56;48.76
10482;BME280;5288;42.334;23.876;2022-07-26T08:37:27;55733.28;;;-140.56;48.84
10482;BME280;5288;42.334;23.876;2022-07-26T08:39:54;55755.00;;;-140.56;48.77
10482;BME280;5288;42.334;23.876;2022-07-26T08:42:22;55725.38;;;-140.56;47.93
10482;BME280;5288;42.334;23.876;2022-07-26T08:44:51;55731.28;;;-140.56;48.10
10482;BME280;5288;42.334;23.876;2022-07-26T08:47:20;55733.28;;;-140.56;48.65
10482;BME280;5288;42.334;23.876;2022-07-26T08:49:48;55691.78;;;-140.56;47.32
10482;BME280;5288;42.334;23.876;2022-07-26T08:52:15;55745.13;;;-140.56;47.57
10482;BME280;5288;42.334;23.876;2022-07-26T08:54:43;55733.28;;;-140.56;47.67
10482;BME280;5288;42.334;23.876;2022-07-26T08:57:11;55689.81;;;-140.56;48.08
10482;BME280;5288;42.334;23.876;2022-07-26T08:59:39;55727.34;;;-140.56;46.88
10482;BME280;5288;42.334;23.876;2022-07-26T09:02:09;55703.63;;;-140.56;46.85
10482;BME280;5288;42.334;23.876;2022-07-26T09:04:40;55743.16;;;-140.56;46.52
10482;BME280;5288;42.334;23.876;2022-07-26T09:07:11;55707.59;;;-140.56;46.95
10482;BME280;5288;42.334;23.876;2022-07-26T09:09:54;55689.81;;;-140.56;45.98
10482;BME280;5288;42.334;23.876;2022-07-26T09:12:22;55697.69;;;-140.56;45.29
10482;BME280;5288;42.334;23.876;2022-07-26T09:14:51;55670.03;;;-140.56;44.23
10482;BME280;5288;42.334;23.876;2022-07-26T09:17:21;55672.00;;;-140.56;43.79
10482;BME280;5288;42.334;23.876;2022-07-26T09:20:03;55648.31;;;-140.56;43.00
10482;BME280;5288;42.334;23.876;2022-07-26T09:22:31;55681.91;;;-140.56;41.20
10482;BME280;5288;42.334;23.876;2022-07-26T09:24:58;55650.28;;;-140.56;39.75
10482;BME280;5288;42.334;23.876;2022-07-26T09:27:33;55658.19;;;-140.56;40.95
10482;BME280;5288;42.334;23.876;2022-07-26T09:30:05;55660.16;;;-140.56;41.79
10482;BME280;5288;42.334;23.876;2022-07-26T09:32:34;55675.97;;;-140.56;40.27
10482;BME280;5288;42.334;23.876;2022-07-26T09:35:12;55634.47;;;-140.56;41.32
10482;BME280;5288;42.334;23.876;2022-07-26T09:37:41;55612.75;;;-140.56;40.40
10482;BME280;5288;42.334;23.876;2022-07-26T09:40:10;55598.91;;;-140.56;38.53
10482;BME280;5288;42.334;23.876;2022-07-26T09:42:38;55594.94;;;-140.56;39.19
10482;BME280;5288;42.334;23.876;2022-07-26T09:45:19;55598.91;;;-140.56;39.65
10482;BME280;5288;42.334;23.876;2022-07-26T09:47:47;55606.81;;;-140.56;41.35
10482;BME280;5288;42.334;23.876;2022-07-26T09:50:16;55600.88;;;-140.56;39.82
10482;BME280;5288;42.334;23.876;2022-07-26T09:52:58;55583.09;;;-140.56;38.12
10482;BME280;5288;42.334;23.876;2022-07-26T09:55:26;55577.16;;;-140.56;37.79
10482;BME280;5288;42.334;23.876;2022-07-26T09:57:53;55591.00;;;-140.56;37.17
10482;BME280;5288;42.334;23.876;2022-07-26T10:00:20;55579.16;;;-140.56;38.25
10482;BME280;5288;42.334;23.876;2022-07-26T10:02:51;55563.34;;;-140.56;39.16
10482;BME280;5288;42.334;23.876;2022-07-26T10:05:19;55533.69;;;-140.56;35.95
10482;BME280;5288;42.334;23.876;2022-07-26T10:07:48;55561.38;;;-140.56;35.75
10482;BME280;5288;42.334;23.876;2022-07-26T10:10:22;55581.13;;;-140.56;35.66
10482;BME280;5288;42.334;23.876;2022-07-26T10:12:51;55583.09;;;-140.56;34.76
10482;BME280;5288;42.334;23.876;2022-07-26T10:15:37;55557.41;;;-140.56;34.29
10482;BME280;5288;42.334;23.876;2022-07-26T10:18:07;55577.16;;;-140.56;35.68
10482;BME280;5288;42.334;23.876;2022-07-26T10:20:46;55585.06;;;-140.56;36.62
10482;BME280;5288;42.334;23.876;2022-07-26T10:23:40;55604.84;;;-140.56;36.79
10482;BME280;5288;42.334;23.876;2022-07-26T10:26:12;55612.75;;;-140.56;36.91
10482;BME280;5288;42.334;23.876;2022-07-26T10:29:17;55585.06;;;-140.56;36.01
10482;BME280;5288;42.334;23.876;2022-07-26T10:31:46;55559.38;;;-140.56;35.47
10482;BME280;5288;42.334;23.876;2022-07-26T10:34:29;55555.44;;;-140.56;36.05
10482;BME280;5288;42.334;23.876;2022-07-26T10:36:57;55519.88;;;-140.56;36.44
10482;BME280;5288;42.334;23.876;2022-07-26T10:39:26;55515.91;;;-140.56;30.82
10482;BME280;5288;42.334;23.876;2022-07-26T10:41:57;55531.72;;;-140.56;34.72
10482;BME280;5288;42.334;23.876;2022-07-26T10:44:26;55531.72;;;-140.56;33.88
10482;BME280;5288;42.334;23.876;2022-07-26T10:47:09;55549.50;;;-140.56;33.51
10482;BME280;5288;42.334;23.876;2022-07-26T10:49:53;55559.38;;;-140.56;34.25
10482;BME280;5288;42.334;23.876;2022-07-26T10:52:23;55565.31;;;-140.56;34.23
10482;BME280;5288;42.334;23.876;2022-07-26T10:55:15;55571.25;;;-140.56;34.37
10482;BME280;5288;42.334;23.876;2022-07-26T10:57:46;55537.66;;;-140.56;33.95
10482;BME280;5288;42.334;23.876;2022-07-26T11:00:22;55539.63;;;-140.56;36.60
10482;BME280;5288;42.334;23.876;2022-07-26T11:02:55;55549.50;;;-140.56;32.92
10482;BME280;5288;42.334;23.876;2022-07-26T11:05:28;55510.00;;;-140.56;34.48
10482;BME280;5288;42.334;23.876;2022-07-26T11:07:58;55521.84;;;-140.56;32.17
10482;BME280;5288;42.334;23.876;2022-07-26T11:10:30;55581.13;;;-140.56;33.16
10482;BME280;5288;42.334;23.876;2022-07-26T11:13:03;55555.44;;;-140.56;32.96
10482;BME280;5288;42.334;23.876;2022-07-26T11:15:30;55500.09;;;-140.56;33.07
10482;BME280;5288;42.334;23.876;2022-07-26T11:18:15;55502.09;;;-140.56;32.83
10482;BME280;5288;42.334;23.876;2022-07-26T11:20:47;55510.00;;;-140.56;32.06
10482;BME280;5288;42.334;23.876;2022-07-26T11:23:28;55515.91;;;-140.56;31.99
10482;BME280;5288;42.334;23.876;2022-07-26T11:26:10;55511.97;;;-140.56;34.64
10482;BME280;5288;42.334;23.876;2022-07-26T11:28:49;55458.63;;;-140.56;33.82
10482;BME280;5288;42.334;23.876;2022-07-26T11:31:18;55456.63;;;-140.56;30.93
10482;BME280;5288;42.334;23.876;2022-07-26T11:33:48;55462.56;;;-140.56;33.43
10482;BME280;5288;42.334;23.876;2022-07-26T11:36:30;55513.94;;;-140.56;32.03
10482;BME280;5288;42.334;23.876;2022-07-26T11:38:57;55511.97;;;-140.56;31.55
10482;BME280;5288;42.334;23.876;2022-07-26T11:41:26;55482.31;;;-140.56;31.84
10482;BME280;5288;42.334;23.876;2022-07-26T11:43:54;55472.44;;;-140.56;32.20
10482;BME280;5288;42.334;23.876;2022-07-26T11:46:22;55502.09;;;-140.56;32.12
10482;BME280;5288;42.334;23.876;2022-07-26T11:48:51;55494.19;;;-140.56;31.92
10482;BME280;5288;42.334;23.876;2022-07-26T11:51:20;55448.72;;;-140.56;32.57
10482;BME280;5288;42.334;23.876;2022-07-26T11:53:48;55440.84;;;-140.56;31.01
10482;BME280;5288;42.334;23.876;2022-07-26T11:56:18;55436.88;;;-140.56;30.69
10482;BME280;5288;42.334;23.876;2022-07-26T11:58:50;55468.50;;;-140.56;30.42
10482;BME280;5288;42.334;23.876;2022-07-26T12:01:19;55472.44;;;-140.56;30.02
10482;BME280;5288;42.334;23.876;2022-07-26T12:03:47;55486.28;;;-140.56;30.11
10482;BME280;5288;42.334;23.876;2022-07-26T12:06:16;55440.84;;;-140.56;31.93
10482;BME280;5288;42.334;23.876;2022-07-26T12:08:46;55442.81;;;-140.56;29.18
10482;BME280;5288;42.334;23.876;2022-07-26T12:11:15;55436.88;;;-140.56;29.60
10482;BME280;5288;42.334;23.876;2022-07-26T12:13:50;55464.53;;;-140.56;29.71
10482;BME280;5288;42.334;23.876;2022-07-26T12:16:41;55440.84;;;-140.56;30.64
10482;BME280;5288;42.334;23.876;2022-07-26T12:19:21;55421.06;;;-140.56;30.70
10482;BME280;5288;42.334;23.876;2022-07-26T12:21:50;55488.25;;;-140.56;29.48
10482;BME280;5288;42.334;23.876;2022-07-26T12:24:37;55438.84;;;-140.56;29.03
10482;BME280;5288;42.334;23.876;2022-07-26T12:27:06;55454.66;;;-140.56;28.75
10482;BME280;5288;42.334;23.876;2022-07-26T12:29:34;55464.53;;;-140.56;29.85
10482;BME280;5288;42.334;23.876;2022-07-26T12:32:11;55484.31;;;-140.56;29.63
10482;BME280;5288;42.334;23.876;2022-07-26T12:34:39;55440.84;;;-140.56;29.25
10482;BME280;5288;42.334;23.876;2022-07-26T12:37:15;55419.09;;;-140.56;30.39
10482;BME280;5288;42.334;23.876;2022-07-26T12:40:00;55452.69;;;-140.56;27.86
10482;BME280;5288;42.334;23.876;2022-07-26T12:42:30;55456.63;;;-140.56;28.64
10482;BME280;5288;42.334;23.876;2022-07-26T12:44:58;55452.69;;;-140.56;29.29
10482;BME280;5288;42.334;23.876;2022-07-26T12:47:25;55436.88;;;-140.56;30.39
10482;BME280;5288;42.334;23.876;2022-07-26T12:49:53;55425.03;;;-140.56;27.70
10482;BME280;5288;42.334;23.876;2022-07-26T12:52:21;55454.66;;;-140.56;27.78
10482;BME280;5288;42.334;23.876;2022-07-26T12:54:49;55448.72;;;-140.56;28.09
10482;BME280;5288;42.334;23.876;2022-07-26T12:57:19;55425.03;;;-140.56;27.78
10482;BME280;5288;42.334;23.876;2022-07-26T12:59:47;55460.59;;;-140.56;29.08
10482;BME280;5288;42.334;23.876;2022-07-26T13:02:16;55462.56;;;-140.56;29.84
10482;BME280;5288;42.334;23.876;2022-07-26T13:04:44;55415.16;;;-140.56;29.37
10482;BME280;5288;42.334;23.876;2022-07-26T13:07:11;55405.25;;;-140.56;28.86
10482;BME280;5288;42.334;23.876;2022-07-26T13:09:39;55399.34;;;-140.56;27.66
10482;BME280;5288;42.334;23.876;2022-07-26T13:12:07;55405.25;;;-140.56;27.98
10482;BME280;5288;42.334;23.876;2022-07-26T13:14:37;55385.50;;;-140.56;27.73
10482;BME280;5288;42.334;23.876;2022-07-26T13:17:04;55399.34;;;-140.56;27.51